createdAt,value
2023-04-24T00:01:54.639Z,1.10
2023-04-24T00:04:22.966Z,1.58
2023-04-24T00:06:54.984Z,1.45
2023-04-24T00:09:23.202Z,1.40
2023-04-24T00:11:51.282Z,1.15
2023-04-24T00:14:19.387Z,1.13
2023-04-24T00:16:47.528Z,1.20
2023-04-24T00:19:17.575Z,1.40
2023-04-24T00:21:45.702Z,1.50
2023-04-24T00:24:13.824Z,1.58
2023-04-24T00:26:41.878Z,1.20
2023-04-24T00:29:09.946Z,1.25
2023-04-24T00:31:38.069Z,1.30
2023-04-24T00:34:07.536Z,1.30
2023-04-24T00:36:36.987Z,1.38
2023-04-24T00:39:05.248Z,1.23
2023-04-24T00:41:33.407Z,1.73
2023-04-24T00:44:01.485Z,1.20
2023-04-24T00:46:30.115Z,1.40
2023-04-24T00:48:58.844Z,0.90
2023-04-24T00:51:26.974Z,1.02
2023-04-24T00:53:56.439Z,1.00
2023-04-24T00:56:24.644Z,1.25
2023-04-24T00:58:53.084Z,1.20
2023-04-24T01:01:22.895Z,1.10
2023-04-24T01:03:53.554Z,0.90
2023-04-24T01:06:22.570Z,0.90
2023-04-24T01:08:51.782Z,1.20
2023-04-24T01:11:21.278Z,0.90
2023-04-24T01:13:50.149Z,1.00
2023-04-24T01:16:18.785Z,0.90
2023-04-24T01:18:46.923Z,0.93
2023-04-24T01:21:17.530Z,1.10
2023-04-24T01:23:47.637Z,0.90
2023-04-24T01:26:18.031Z,1.17
2023-04-24T01:28:46.178Z,0.88
2023-04-24T01:31:14.465Z,0.90
2023-04-24T01:33:43.580Z,1.00
2023-04-24T01:36:13.466Z,0.80
2023-04-24T01:38:41.585Z,0.88
2023-04-24T01:41:11.623Z,1.05
2023-04-24T01:43:39.860Z,0.95
2023-04-24T01:46:08.522Z,1.05
2023-04-24T01:48:37.210Z,1.00
2023-04-24T01:51:05.454Z,0.73
2023-04-24T01:53:33.554Z,0.90
2023-04-24T01:56:01.758Z,0.95
2023-04-24T01:58:31.259Z,0.90
2023-04-24T02:00:59.937Z,0.90
2023-04-24T02:03:28.581Z,0.90
2023-04-24T02:05:56.905Z,1.17
2023-04-24T02:08:25.138Z,0.75
2023-04-24T02:10:53.552Z,1.20
2023-04-24T02:13:21.654Z,1.00
2023-04-24T02:15:51.069Z,1.10
2023-04-24T02:18:19.129Z,0.90
2023-04-24T02:20:47.197Z,0.98
2023-04-24T02:23:15.744Z,0.70
2023-04-24T02:25:43.824Z,0.95
2023-04-24T02:28:11.842Z,0.85
2023-04-24T02:30:39.950Z,1.00
2023-04-24T02:33:09.362Z,0.77
2023-04-24T02:35:37.462Z,1.60
2023-04-24T02:38:05.759Z,2.17
2023-04-24T02:40:34.428Z,1.33
2023-04-24T02:43:02.543Z,1.13
2023-04-24T02:45:30.665Z,0.90
2023-04-24T02:47:58.787Z,0.93
2023-04-24T02:50:28.302Z,1.10
2023-04-24T02:52:56.381Z,1.33
2023-04-24T02:55:24.437Z,0.68
2023-04-24T02:57:52.564Z,0.93
2023-04-24T03:00:20.964Z,0.90
2023-04-24T03:02:50.622Z,0.98
2023-04-24T03:05:19.022Z,0.90
2023-04-24T03:07:48.497Z,0.98
2023-04-24T03:10:16.710Z,1.00
2023-04-24T03:12:44.752Z,0.85
2023-04-24T03:15:13.103Z,1.00
2023-04-24T03:17:41.290Z,1.15
2023-04-24T03:20:10.882Z,1.08
2023-04-24T03:22:38.978Z,1.13
2023-04-24T03:25:10.422Z,1.42
2023-04-24T03:27:40.293Z,1.70
2023-04-24T03:30:09.703Z,1.67
2023-04-24T03:32:37.832Z,1.25
2023-04-24T03:35:06.450Z,1.45
2023-04-24T03:37:34.481Z,1.30
2023-04-24T03:40:02.584Z,1.13
2023-04-24T03:42:32.074Z,1.20
2023-04-24T03:45:00.130Z,1.90
2023-04-24T03:47:28.223Z,2.00
2023-04-24T03:49:56.898Z,1.30
2023-04-24T03:52:25.064Z,0.93
2023-04-24T03:54:53.141Z,1.17
2023-04-24T03:57:21.279Z,1.10
2023-04-24T03:59:50.759Z,1.02
2023-04-24T04:02:19.049Z,1.00
2023-04-24T04:04:47.361Z,1.13
2023-04-24T04:07:15.775Z,1.30
2023-04-24T04:09:44.078Z,1.20
2023-04-24T04:12:12.326Z,1.23
2023-04-24T04:14:40.398Z,1.10
2023-04-24T04:17:09.856Z,1.10
2023-04-24T04:19:38.083Z,1.20
2023-04-24T04:22:06.188Z,1.00
2023-04-24T04:24:34.241Z,1.10
2023-04-24T04:27:02.473Z,1.20
2023-04-24T04:29:30.554Z,1.42
2023-04-24T04:31:59.142Z,1.20
2023-04-24T04:34:28.651Z,1.27
2023-04-24T04:36:56.716Z,1.27
2023-04-24T04:39:24.858Z,1.52
2023-04-24T04:41:53.958Z,1.38
2023-04-24T04:44:22.463Z,1.10
2023-04-24T04:46:51.140Z,1.40
2023-04-24T04:49:20.257Z,1.30
2023-04-24T04:51:49.783Z,1.05
2023-04-24T04:54:18.331Z,1.00
2023-04-24T04:56:46.423Z,1.20
2023-04-24T04:59:15.049Z,1.15
2023-04-24T05:01:43.618Z,1.13
2023-04-24T05:04:11.956Z,1.10
2023-04-24T05:06:40.631Z,1.00
2023-04-24T05:09:10.023Z,1.08
2023-04-24T05:11:38.617Z,1.35
2023-04-24T05:14:06.694Z,1.40
2023-04-24T05:16:35.282Z,1.33
2023-04-24T05:19:03.378Z,1.27
2023-04-24T05:21:31.893Z,1.30
2023-04-24T05:23:59.956Z,1.17
2023-04-24T05:26:29.417Z,1.23
2023-04-24T05:28:57.957Z,1.27
2023-04-24T05:31:26.918Z,1.20
2023-04-24T05:33:55.040Z,1.30
2023-04-24T05:36:23.594Z,1.25
2023-04-24T05:38:51.673Z,1.10
2023-04-24T05:41:20.212Z,1.20
2023-04-24T05:43:50.217Z,0.90
2023-04-24T05:46:18.319Z,1.40
2023-04-24T05:48:47.146Z,0.93
2023-04-24T05:51:15.240Z,1.15
2023-04-24T05:53:43.343Z,1.00
2023-04-24T05:56:11.562Z,1.05
2023-04-24T05:58:40.581Z,0.95
2023-04-24T06:01:10.565Z,0.90
2023-04-24T06:03:39.083Z,1.15
2023-04-24T06:06:08.413Z,0.80
2023-04-24T06:08:37.140Z,1.00
2023-04-24T06:11:05.271Z,1.10
2023-04-24T06:13:33.811Z,1.08
2023-04-24T06:16:02.081Z,0.90
2023-04-24T06:18:32.096Z,1.00
2023-04-24T06:21:00.127Z,1.10
2023-04-24T06:23:28.825Z,1.02
2023-04-24T06:25:56.849Z,1.02
2023-04-24T06:28:24.921Z,1.13
2023-04-24T06:30:53.454Z,0.60
2023-04-24T06:33:23.679Z,1.25
2023-04-24T06:35:53.835Z,0.60
2023-04-24T06:38:22.203Z,0.85
2023-04-24T06:40:50.745Z,0.75
2023-04-24T06:43:18.906Z,0.82
2023-04-24T06:45:48.617Z,0.73
2023-04-24T06:48:16.732Z,0.68
2023-04-24T06:50:44.824Z,0.75
2023-04-24T06:53:15.892Z,0.65
2023-04-24T06:55:44.337Z,0.80
2023-04-24T06:58:12.751Z,0.52
2023-04-24T07:00:41.330Z,0.90
2023-04-24T07:03:09.602Z,0.90
2023-04-24T07:05:39.624Z,1.20
2023-04-24T07:08:09.716Z,0.75
2023-04-24T07:10:39.679Z,0.93
2023-04-24T07:13:08.047Z,0.90
2023-04-24T07:15:36.841Z,1.00
2023-04-24T07:18:06.058Z,0.90
2023-04-24T07:20:35.082Z,1.00
2023-04-24T07:23:04.171Z,1.20
2023-04-24T07:25:32.895Z,1.30
2023-04-24T07:28:02.396Z,1.10
2023-04-24T07:30:30.921Z,1.20
2023-04-24T07:32:58.962Z,1.30
2023-04-24T07:35:27.898Z,1.00
2023-04-24T07:37:56.466Z,1.30
2023-04-24T07:40:25.196Z,1.40
2023-04-24T07:42:53.227Z,1.17
2023-04-24T07:45:24.498Z,1.17
2023-04-24T07:47:53.289Z,1.30
2023-04-24T07:50:22.105Z,1.38
2023-04-24T07:52:50.191Z,1.20
2023-04-24T07:55:20.326Z,1.45
2023-04-24T07:57:50.258Z,1.30
2023-04-24T08:00:18.901Z,1.45
2023-04-24T08:02:49.168Z,1.45
2023-04-24T08:05:17.635Z,1.58
2023-04-24T08:07:47.655Z,1.35
2023-04-24T08:10:16.482Z,1.55
2023-04-24T08:12:45.078Z,1.80
2023-04-24T08:15:13.256Z,1.73
2023-04-24T08:17:41.879Z,1.67
2023-04-24T08:20:14.666Z,1.73
2023-04-24T08:22:43.706Z,1.88
2023-04-24T08:25:13.634Z,1.60
2023-04-24T08:27:42.229Z,1.70
2023-04-24T08:30:10.963Z,1.70
2023-04-24T08:32:39.869Z,1.70
2023-04-24T08:35:10.661Z,1.58
2023-04-24T08:37:40.186Z,1.75
2023-04-24T08:40:14.355Z,1.75
2023-04-24T08:42:45.569Z,1.75
2023-04-24T08:45:15.446Z,1.70
2023-04-24T08:47:45.575Z,1.70
2023-04-24T08:50:14.346Z,1.67
2023-04-24T08:52:44.823Z,1.73
2023-04-24T08:55:13.132Z,1.65
2023-04-24T08:57:42.127Z,1.50
2023-04-24T09:00:12.302Z,1.70
2023-04-24T09:02:45.298Z,1.85
2023-04-24T09:05:14.948Z,1.58
2023-04-24T09:07:49.222Z,1.60
2023-04-24T09:10:18.108Z,1.80
2023-04-24T09:12:47.076Z,1.60
2023-04-24T09:15:16.339Z,1.70
2023-04-24T09:17:45.323Z,1.50
2023-04-24T09:20:13.900Z,1.60
2023-04-24T09:22:42.526Z,1.48
2023-04-24T09:25:14.050Z,1.77
2023-04-24T09:27:46.232Z,1.67
2023-04-24T09:30:15.546Z,1.45
2023-04-24T09:32:44.131Z,1.70
2023-04-24T09:35:15.346Z,1.42
2023-04-24T09:37:44.937Z,1.10
2023-04-24T09:40:17.638Z,1.30
2023-04-24T09:42:47.358Z,1.13
2023-04-24T09:45:16.246Z,1.13
2023-04-24T09:47:45.188Z,1.10
2023-04-24T09:50:18.198Z,1.50
2023-04-24T09:52:58.520Z,1.27
2023-04-24T09:55:28.076Z,1.38
2023-04-24T09:57:58.729Z,1.10
2023-04-24T10:00:28.355Z,1.27
2023-04-24T10:03:01.070Z,1.35
2023-04-24T10:05:33.920Z,1.10
2023-04-24T10:08:07.402Z,0.98
2023-04-24T10:10:41.000Z,1.33
2023-04-24T10:13:11.603Z,1.00
2023-04-24T10:15:41.323Z,1.10
2023-04-24T10:18:12.008Z,0.95
2023-04-24T10:20:42.081Z,1.02
2023-04-24T10:23:10.241Z,0.80
2023-04-24T10:25:40.181Z,0.73
2023-04-24T10:28:11.009Z,1.10
2023-04-24T10:30:39.846Z,0.80
2023-04-24T10:33:10.485Z,1.27
2023-04-24T10:35:43.311Z,0.95
2023-04-24T10:38:14.613Z,0.70
2023-04-24T10:40:45.587Z,0.90
2023-04-24T10:43:19.480Z,0.90
2023-04-24T10:46:04.492Z,0.80
2023-04-24T10:48:33.408Z,0.60
2023-04-24T10:51:01.655Z,0.68
2023-04-24T10:53:31.965Z,0.80
2023-04-24T10:56:06.396Z,0.90
2023-04-24T10:58:46.143Z,0.80
2023-04-24T11:01:27.867Z,0.90
2023-04-24T11:03:58.650Z,0.85
2023-04-24T11:06:34.167Z,1.10
2023-04-24T11:09:07.538Z,1.20
2023-04-24T11:11:40.837Z,1.10
2023-04-24T11:14:12.596Z,0.93
2023-04-24T11:16:53.419Z,1.10
2023-04-24T11:19:26.092Z,1.10
2023-04-24T11:22:01.160Z,1.08
2023-04-24T11:24:32.208Z,1.17
2023-04-24T11:27:08.231Z,1.13
2023-04-24T11:29:49.588Z,1.25
2023-04-24T11:32:26.360Z,1.13
2023-04-24T11:34:57.350Z,1.13
2023-04-24T11:37:27.313Z,1.17
2023-04-24T11:39:57.125Z,1.30
2023-04-24T11:42:27.703Z,1.40
2023-04-24T11:44:57.884Z,1.25
2023-04-24T11:47:35.112Z,1.20
2023-04-24T11:50:04.454Z,1.33
2023-04-24T11:52:33.447Z,1.23
2023-04-24T11:55:02.726Z,1.40
2023-04-24T11:57:35.818Z,1.10
2023-04-24T12:00:07.032Z,1.33
2023-04-24T12:02:37.502Z,1.00
2023-04-24T12:05:08.672Z,1.30
2023-04-24T12:07:44.732Z,1.33
2023-04-24T12:10:12.956Z,1.15
2023-04-24T12:12:43.109Z,1.60
2023-04-24T12:15:13.485Z,1.52
2023-04-24T12:17:45.013Z,1.30
2023-04-24T12:20:15.477Z,1.38
2023-04-24T12:22:48.315Z,1.10
2023-04-24T12:25:17.406Z,1.10
2023-04-24T12:27:48.529Z,1.30
2023-04-24T12:30:18.448Z,1.00
2023-04-24T12:32:49.038Z,1.00
2023-04-24T12:35:22.646Z,1.00
2023-04-24T12:37:51.371Z,0.95
2023-04-24T12:40:21.585Z,1.00
2023-04-24T12:42:52.697Z,1.08
2023-04-24T12:45:21.296Z,1.30
2023-04-24T12:47:51.478Z,1.33
2023-04-24T12:50:19.705Z,1.05
2023-04-24T12:52:48.273Z,1.00
2023-04-24T12:55:16.297Z,1.13
2023-04-24T12:57:44.825Z,0.98
2023-04-24T13:00:16.021Z,1.20
2023-04-24T13:02:45.683Z,1.23
2023-04-24T13:05:15.517Z,1.10
2023-04-24T13:07:44.134Z,1.02
2023-04-24T13:10:13.344Z,1.30
2023-04-24T13:12:41.890Z,1.20
2023-04-24T13:15:11.061Z,1.20
2023-04-24T13:17:40.516Z,2.15
2023-04-24T13:20:09.872Z,1.00
2023-04-24T13:22:38.685Z,1.30
2023-04-24T13:25:08.830Z,0.93
2023-04-24T13:27:36.883Z,1.00
2023-04-24T13:30:06.136Z,1.20
2023-04-24T13:32:36.326Z,0.80
2023-04-24T13:35:06.992Z,1.13
2023-04-24T13:37:35.512Z,1.15
2023-04-24T13:40:03.599Z,1.10
2023-04-24T13:42:32.116Z,1.10
2023-04-24T13:45:01.011Z,1.13
2023-04-24T13:47:31.049Z,1.20
2023-04-24T13:49:59.570Z,1.20
2023-04-24T13:52:29.469Z,1.52
2023-04-24T13:54:57.510Z,1.40
2023-04-24T13:57:26.082Z,1.45
2023-04-24T13:59:54.643Z,1.30
2023-04-24T14:02:23.333Z,1.60
2023-04-24T14:04:51.583Z,1.27
2023-04-24T14:07:20.273Z,1.40
2023-04-24T14:09:50.746Z,1.40
2023-04-24T14:12:21.236Z,1.55
2023-04-24T14:14:49.492Z,1.33
2023-04-24T14:17:17.581Z,1.35
2023-04-24T14:19:45.733Z,1.33
2023-04-24T14:22:13.773Z,1.42
2023-04-24T14:24:42.427Z,1.25
2023-04-24T14:27:11.891Z,1.40
2023-04-24T14:29:40.411Z,1.10
2023-04-24T14:32:09.965Z,0.90
2023-04-24T14:34:38.506Z,1.33
2023-04-24T14:37:07.163Z,1.05
2023-04-24T14:39:35.801Z,1.30
2023-04-24T14:42:03.834Z,1.25
2023-04-24T14:44:33.821Z,1.30
2023-04-24T14:47:02.695Z,1.15
2023-04-24T14:49:30.810Z,1.52
2023-04-24T14:51:59.324Z,1.20
2023-04-24T14:54:27.386Z,1.30
2023-04-24T14:56:58.375Z,1.23
2023-04-24T14:59:26.871Z,1.23
2023-04-24T15:02:12.539Z,1.50
2023-04-24T15:04:44.466Z,1.33
2023-04-24T15:07:12.681Z,1.17
2023-04-24T15:09:41.335Z,1.50
2023-04-24T15:12:10.908Z,1.30
2023-04-24T15:14:39.759Z,1.40
2023-04-24T15:17:09.200Z,1.38
2023-04-24T15:19:37.818Z,1.25
2023-04-24T15:22:05.895Z,1.35
2023-04-24T15:24:35.568Z,1.38
2023-04-24T15:27:04.145Z,1.40
2023-04-24T15:29:32.673Z,1.50
2023-04-24T15:32:01.558Z,1.48
2023-04-24T15:34:33.035Z,1.52
2023-04-24T15:37:02.101Z,1.23
2023-04-24T15:39:30.223Z,1.35
2023-04-24T15:41:58.705Z,1.50
2023-04-24T15:44:27.341Z,1.88
2023-04-24T15:46:56.059Z,1.60
2023-04-24T15:49:24.584Z,1.60
2023-04-24T15:51:54.252Z,1.67
2023-04-24T15:54:22.776Z,1.80
2023-04-24T15:56:52.273Z,1.80
2023-04-24T15:59:23.469Z,1.83
2023-04-24T16:01:51.870Z,1.63
2023-04-24T16:04:20.756Z,1.73
2023-04-24T16:06:48.900Z,1.80
2023-04-24T16:09:18.799Z,1.65
2023-04-24T16:11:46.860Z,2.10
2023-04-24T16:14:15.391Z,2.17
2023-04-24T16:16:43.697Z,1.50
2023-04-24T16:19:12.212Z,1.73
2023-04-24T16:21:40.254Z,1.92
2023-04-24T16:24:08.352Z,1.80
2023-04-24T16:26:38.628Z,1.70
2023-04-24T16:29:07.260Z,1.88
2023-04-24T16:31:35.355Z,1.77
2023-04-24T16:34:04.213Z,1.88
2023-04-24T16:36:32.659Z,1.85
2023-04-24T16:39:01.820Z,1.58
2023-04-24T16:41:29.890Z,1.90
2023-04-24T16:44:03.141Z,1.67
2023-04-24T16:46:31.284Z,1.70
2023-04-24T16:48:59.554Z,1.80
2023-04-24T16:51:30.339Z,1.42
2023-04-24T16:53:58.428Z,1.77
2023-04-24T16:56:27.000Z,1.85
2023-04-24T16:58:55.065Z,1.90
2023-04-24T17:01:25.489Z,1.90
2023-04-24T17:03:53.642Z,1.88
2023-04-24T17:06:22.636Z,2.00
2023-04-24T17:08:50.828Z,2.00
2023-04-24T17:11:19.449Z,2.03
2023-04-24T17:13:47.470Z,1.90
2023-04-24T17:16:15.940Z,1.67
2023-04-24T17:18:46.032Z,2.10
2023-04-24T17:21:14.134Z,1.95
2023-04-24T17:23:42.661Z,2.13
2023-04-24T17:26:11.265Z,2.08
2023-04-24T17:28:40.307Z,2.00
2023-04-24T17:31:08.832Z,1.73
2023-04-24T17:33:37.583Z,1.48
2023-04-24T17:36:08.168Z,1.83
2023-04-24T17:38:36.358Z,1.83
2023-04-24T17:41:04.435Z,2.30
2023-04-24T17:43:33.379Z,1.70
2023-04-24T17:46:01.504Z,1.33
2023-04-24T17:48:29.743Z,1.48
2023-04-24T17:50:57.814Z,1.50
2023-04-24T17:53:27.260Z,1.60
2023-04-24T17:55:57.800Z,1.50
2023-04-24T17:58:25.946Z,1.73
2023-04-24T18:00:53.983Z,1.50
2023-04-24T18:03:22.703Z,1.63
2023-04-24T18:05:51.310Z,1.63
2023-04-24T18:08:19.892Z,1.90
2023-04-24T18:10:49.489Z,1.75
2023-04-24T18:13:17.623Z,1.70
2023-04-24T18:15:46.264Z,1.77
2023-04-24T18:18:15.498Z,1.52
2023-04-24T18:20:43.582Z,2.50
2023-04-24T18:23:12.140Z,1.92
2023-04-24T18:25:40.666Z,1.80
2023-04-24T18:28:10.372Z,2.10
2023-04-24T18:30:39.070Z,1.58
2023-04-24T18:33:08.789Z,1.75
2023-04-24T18:35:37.385Z,1.90
2023-04-24T18:38:05.445Z,1.90
2023-04-24T18:40:33.942Z,1.90
2023-04-24T18:43:03.210Z,1.85
2023-04-24T18:45:33.218Z,1.60
2023-04-24T18:48:01.802Z,1.98
2023-04-24T18:50:31.774Z,1.95
2023-04-24T18:53:00.221Z,2.13
2023-04-24T18:55:28.296Z,1.75
2023-04-24T18:57:56.825Z,1.98
2023-04-24T19:00:24.862Z,1.65
2023-04-24T19:02:55.183Z,1.63
2023-04-24T19:05:23.746Z,1.70
2023-04-24T19:07:51.787Z,2.13
2023-04-24T19:10:19.949Z,2.28
2023-04-24T19:12:49.493Z,2.28
2023-04-24T19:15:18.187Z,2.03
2023-04-24T19:17:50.108Z,2.08
2023-04-24T19:20:19.796Z,2.03
2023-04-24T19:22:48.855Z,2.22
2023-04-24T19:25:17.135Z,2.30
2023-04-24T19:27:45.756Z,2.00
2023-04-24T19:30:14.732Z,2.30
2023-04-24T19:32:42.866Z,2.38
2023-04-24T19:35:11.609Z,2.38
2023-04-24T19:37:41.751Z,2.40
2023-04-24T19:40:11.281Z,2.55
2023-04-24T19:42:43.994Z,2.75
2023-04-24T19:45:13.556Z,2.40
2023-04-24T19:47:41.738Z,2.80
2023-04-24T19:50:10.770Z,2.65
2023-04-24T19:52:40.822Z,2.40
2023-04-24T19:55:09.762Z,2.58
2023-04-24T19:57:37.847Z,2.72
2023-04-24T20:00:06.881Z,2.70
2023-04-24T20:02:35.660Z,2.97
2023-04-24T20:05:04.132Z,3.20
2023-04-24T20:07:32.301Z,2.70
2023-04-24T20:10:01.786Z,2.92
2023-04-24T20:12:30.533Z,2.80
2023-04-24T20:14:58.645Z,2.53
2023-04-24T20:17:27.187Z,2.35
2023-04-24T20:19:55.265Z,2.20
2023-04-24T20:22:23.715Z,2.20
2023-04-24T20:24:51.828Z,2.22
2023-04-24T20:27:21.804Z,2.50
2023-04-24T20:29:49.858Z,2.47
2023-04-24T20:32:18.024Z,2.55
2023-04-24T20:34:46.088Z,1.83
2023-04-24T20:37:14.379Z,2.15
2023-04-24T20:39:44.562Z,1.95
2023-04-24T20:42:13.816Z,2.10
2023-04-24T20:44:45.598Z,1.70
2023-04-24T20:47:14.164Z,1.70
2023-04-24T20:49:42.499Z,1.60
2023-04-24T20:52:10.582Z,1.88
2023-04-24T20:54:39.107Z,1.80
2023-04-24T20:57:07.148Z,1.55
2023-04-24T20:59:35.746Z,1.85
2023-04-24T21:02:05.737Z,1.90
2023-04-24T21:04:37.937Z,1.77
2023-04-24T21:07:06.181Z,1.67
2023-04-24T21:09:36.053Z,1.98
2023-04-24T21:12:04.195Z,1.77
2023-04-24T21:14:32.717Z,1.67
2023-04-24T21:17:01.835Z,1.90
2023-04-24T21:19:31.440Z,1.95
2023-04-24T21:21:59.526Z,2.10
2023-04-24T21:24:27.591Z,2.05
2023-04-24T21:26:56.167Z,2.03
2023-04-24T21:29:24.727Z,2.20
2023-04-24T21:31:54.225Z,2.00
2023-04-24T21:34:22.789Z,1.88
2023-04-24T21:36:52.212Z,2.03
2023-04-24T21:39:21.529Z,2.20
2023-04-24T21:41:49.624Z,2.10
2023-04-24T21:44:17.779Z,2.00
2023-04-24T21:46:46.392Z,2.33
2023-04-24T21:49:14.453Z,2.55
2023-04-24T21:51:43.001Z,2.50
2023-04-24T21:54:12.558Z,2.30
2023-04-24T21:56:41.945Z,1.92
2023-04-24T21:59:10.494Z,2.05
2023-04-24T22:01:39.109Z,2.28
2023-04-24T22:04:07.364Z,2.20
2023-04-24T22:06:36.168Z,1.98
2023-04-24T22:09:04.800Z,1.90
2023-04-24T22:11:35.058Z,1.80
2023-04-24T22:14:03.132Z,1.75
2023-04-24T22:16:31.679Z,2.10
2023-04-24T22:18:59.769Z,2.10
2023-04-24T22:21:29.086Z,2.00
2023-04-24T22:23:58.248Z,2.33
2023-04-24T22:26:26.414Z,2.13
2023-04-24T22:28:56.720Z,2.20
2023-04-24T22:31:25.475Z,2.30
2023-04-24T22:33:53.636Z,2.03
2023-04-24T22:36:22.284Z,2.42
2023-04-24T22:38:50.384Z,2.20
2023-04-24T22:41:18.951Z,2.13
2023-04-24T22:43:47.560Z,2.05
2023-04-24T22:46:18.031Z,2.10
2023-04-24T22:48:48.221Z,2.40
2023-04-24T22:51:17.838Z,2.28
2023-04-24T22:53:46.831Z,2.40
2023-04-24T22:56:15.771Z,2.10
2023-04-24T22:58:44.377Z,2.20
2023-04-24T23:01:12.528Z,2.42
2023-04-24T23:03:42.730Z,2.40
2023-04-24T23:06:11.405Z,2.25
2023-04-24T23:08:39.456Z,2.42
2023-04-24T23:11:08.117Z,2.67
2023-04-24T23:13:36.390Z,2.45
2023-04-24T23:16:05.649Z,2.35
2023-04-24T23:18:34.206Z,2.45
2023-04-24T23:21:03.777Z,2.70
2023-04-24T23:23:31.812Z,2.38
2023-04-24T23:26:01.438Z,2.60
2023-04-24T23:28:30.998Z,2.50
2023-04-24T23:30:59.206Z,2.17
2023-04-24T23:33:28.891Z,2.38
2023-04-24T23:35:58.394Z,2.78
2023-04-24T23:38:36.547Z,2.50
2023-04-24T23:41:11.723Z,2.28
2023-04-24T23:43:39.993Z,2.55
2023-04-24T23:46:08.544Z,2.10
2023-04-24T23:48:37.526Z,2.60
2023-04-24T23:51:06.466Z,1.83
2023-04-24T23:53:36.036Z,1.80
2023-04-24T23:56:04.648Z,2.03
2023-04-24T23:58:32.670Z,2.05
